createdAt,value
2023-03-18T00:00:34.158Z,5.00
2023-03-18T00:03:01.577Z,5.32
2023-03-18T00:05:28.838Z,4.80
2023-03-18T00:07:56.107Z,5.28
2023-03-18T00:10:23.241Z,5.30
2023-03-18T00:12:50.224Z,5.50
2023-03-18T00:15:18.451Z,4.25
2023-03-18T00:17:46.833Z,5.57
2023-03-18T00:20:14.819Z,4.90
2023-03-18T00:22:42.201Z,4.55
2023-03-18T00:25:12.114Z,4.97
2023-03-18T00:27:40.063Z,4.38
2023-03-18T00:30:08.401Z,5.88
2023-03-18T00:32:35.416Z,5.22
2023-03-18T00:35:02.497Z,5.00
2023-03-18T00:37:31.486Z,4.88
2023-03-18T00:40:06.692Z,6.18
2023-03-18T00:45:10.500Z,4.30
2023-03-18T00:47:38.694Z,7.32
2023-03-18T00:50:08.530Z,5.20
2023-03-18T00:52:35.977Z,5.07
2023-03-18T00:55:03.550Z,4.80
2023-03-18T00:57:31.323Z,5.35
2023-03-18T00:59:59.483Z,7.45
2023-03-18T01:02:29.838Z,4.95
2023-03-18T01:04:57.281Z,5.00
2023-03-18T01:07:25.386Z,5.18
2023-03-18T01:09:52.240Z,5.75
2023-03-18T01:12:19.583Z,4.95
2023-03-18T01:14:47.117Z,7.18
2023-03-18T01:17:14.654Z,6.32
2023-03-18T01:19:42.581Z,5.78
2023-03-18T01:22:09.693Z,5.88
2023-03-18T01:24:43.534Z,6.20
2023-03-18T01:27:11.291Z,6.32
2023-03-18T01:29:40.673Z,5.05
2023-03-18T01:32:14.083Z,6.65
2023-03-18T01:34:41.733Z,7.20
2023-03-18T01:37:08.861Z,5.47
2023-03-18T01:39:38.829Z,6.60
2023-03-18T01:42:12.284Z,5.85
2023-03-18T01:44:39.387Z,6.80
2023-03-18T01:47:10.566Z,7.00
2023-03-18T01:49:46.290Z,5.78
2023-03-18T01:52:18.329Z,6.05
2023-03-18T01:55:25.863Z,5.70
2023-03-18T01:57:54.221Z,6.45
2023-03-18T02:00:21.940Z,5.70
2023-03-18T02:02:51.800Z,6.18
2023-03-18T02:05:28.716Z,5.05
2023-03-18T02:07:55.835Z,6.10
2023-03-18T02:10:29.471Z,5.15
2023-03-18T02:13:01.013Z,6.18
2023-03-18T02:15:35.118Z,6.47
2023-03-18T02:18:19.554Z,5.32
2023-03-18T02:21:08.401Z,5.28
2023-03-18T02:24:24.570Z,5.18
2023-03-18T02:27:06.409Z,5.28
2023-03-18T02:29:42.458Z,4.57
2023-03-18T02:34:44.324Z,4.75
2023-03-18T02:37:11.459Z,4.40
2023-03-18T02:39:41.083Z,5.65
2023-03-18T02:42:13.976Z,5.47
2023-03-18T02:44:47.792Z,4.85
2023-03-18T02:47:51.935Z,5.40
2023-03-18T02:50:18.993Z,5.03
2023-03-18T02:52:45.851Z,4.68
2023-03-18T02:55:12.975Z,4.88
2023-03-18T02:57:39.924Z,4.18
2023-03-18T03:00:09.430Z,4.40
2023-03-18T03:02:37.122Z,5.60
2023-03-18T03:05:04.487Z,5.72
2023-03-18T03:07:32.084Z,6.88
2023-03-18T03:10:02.003Z,4.63
2023-03-18T03:12:30.923Z,5.13
2023-03-18T03:14:59.820Z,6.00
2023-03-18T03:17:29.400Z,4.57
2023-03-18T03:19:56.598Z,4.95
2023-03-18T03:22:23.773Z,4.70
2023-03-18T03:24:50.740Z,4.85
2023-03-18T03:27:17.873Z,4.38
2023-03-18T03:29:44.919Z,4.07
2023-03-18T03:32:12.271Z,4.22
2023-03-18T03:34:39.209Z,4.32
2023-03-18T03:37:07.203Z,4.70
2023-03-18T03:39:34.184Z,4.00
2023-03-18T03:42:01.085Z,4.13
2023-03-18T03:44:28.064Z,4.25
2023-03-18T03:46:55.474Z,3.55
2023-03-18T03:49:23.948Z,5.05
2023-03-18T03:51:51.233Z,4.70
2023-03-18T03:54:20.080Z,4.53
2023-03-18T03:56:48.070Z,3.92
2023-03-18T03:59:15.440Z,4.38
2023-03-18T04:02:04.133Z,4.20
2023-03-18T04:04:31.191Z,4.30
2023-03-18T04:06:58.642Z,5.10
2023-03-18T04:09:25.705Z,3.90
2023-03-18T04:11:52.675Z,4.00
2023-03-18T04:14:19.685Z,4.82
2023-03-18T04:16:47.144Z,4.20
2023-03-18T04:19:14.739Z,3.33
2023-03-18T04:21:42.713Z,4.35
2023-03-18T04:24:10.984Z,4.68
2023-03-18T04:26:38.227Z,4.13
2023-03-18T04:29:07.438Z,3.80
2023-03-18T04:31:34.428Z,5.03
2023-03-18T04:34:02.333Z,4.75
2023-03-18T04:36:29.465Z,5.30
2023-03-18T04:38:57.146Z,4.65
2023-03-18T04:41:25.406Z,4.18
2023-03-18T04:43:55.101Z,5.55
2023-03-18T04:46:30.216Z,5.20
2023-03-18T04:48:58.491Z,4.65
2023-03-18T04:51:27.592Z,4.68
2023-03-18T04:53:55.845Z,4.13
2023-03-18T04:56:24.216Z,5.60
2023-03-18T04:58:53.399Z,4.95
2023-03-18T05:01:26.660Z,4.22
2023-03-18T05:03:53.799Z,4.40
2023-03-18T05:06:29.413Z,4.90
2023-03-18T05:09:01.480Z,4.82
2023-03-18T05:11:33.231Z,5.20
2023-03-18T05:14:07.651Z,4.68
2023-03-18T05:16:41.920Z,4.57
2023-03-18T05:19:09.787Z,4.65
2023-03-18T05:21:42.235Z,4.00
2023-03-18T05:24:10.207Z,4.22
2023-03-18T05:26:40.500Z,4.55
2023-03-18T05:29:09.999Z,4.55
2023-03-18T05:32:08.036Z,5.85
2023-03-18T05:34:40.074Z,4.15
2023-03-18T05:37:10.219Z,4.32
2023-03-18T05:39:43.700Z,4.03
2023-03-18T05:42:14.312Z,4.30
2023-03-18T05:44:42.468Z,4.30
2023-03-18T05:47:11.406Z,3.72
2023-03-18T05:49:58.240Z,5.10
2023-03-18T05:52:27.123Z,3.97
2023-03-18T05:54:57.106Z,4.20
2023-03-18T05:57:30.634Z,4.15
2023-03-18T06:00:01.837Z,4.85
2023-03-18T06:02:32.949Z,3.80
2023-03-18T06:05:00.171Z,4.05
2023-03-18T06:07:28.145Z,3.85
2023-03-18T06:09:55.194Z,4.40
2023-03-18T06:12:27.429Z,4.15
2023-03-18T06:14:55.137Z,3.95
2023-03-18T06:17:23.225Z,4.15
2023-03-18T06:19:50.984Z,4.43
2023-03-18T06:22:18.737Z,4.35
2023-03-18T06:24:48.175Z,4.85
2023-03-18T06:27:16.723Z,3.78
2023-03-18T06:29:45.952Z,4.15
2023-03-18T06:32:17.164Z,4.03
2023-03-18T06:34:45.364Z,4.95
2023-03-18T06:37:12.535Z,4.47
2023-03-18T06:39:41.292Z,5.10
2023-03-18T06:42:10.962Z,5.13
2023-03-18T06:44:51.401Z,4.43
2023-03-18T06:47:24.456Z,4.47
2023-03-18T06:49:56.968Z,5.07
2023-03-18T06:52:31.193Z,4.75
2023-03-18T06:55:04.586Z,4.47
2023-03-18T06:57:32.819Z,4.70
2023-03-18T07:00:00.062Z,4.25
2023-03-18T07:02:27.677Z,4.22
2023-03-18T07:04:57.567Z,4.43
2023-03-18T07:07:24.813Z,4.85
2023-03-18T07:09:52.869Z,4.40
2023-03-18T07:12:19.967Z,5.15
2023-03-18T07:14:47.223Z,5.13
2023-03-18T07:17:14.869Z,4.53
2023-03-18T07:19:41.967Z,4.75
2023-03-18T07:22:09.060Z,5.20
2023-03-18T07:24:37.707Z,4.97
2023-03-18T07:27:06.921Z,4.00
2023-03-18T07:29:33.956Z,4.72
2023-03-18T07:32:02.114Z,4.90
2023-03-18T07:34:29.273Z,4.25
2023-03-18T07:36:56.660Z,6.18
2023-03-18T07:39:23.741Z,4.68
2023-03-18T07:41:51.745Z,4.82
2023-03-18T07:44:22.305Z,4.60
2023-03-18T07:46:49.339Z,4.35
2023-03-18T07:49:16.348Z,3.95
2023-03-18T07:51:43.410Z,4.22
2023-03-18T07:54:10.338Z,3.65
2023-03-18T07:56:37.242Z,4.18
2023-03-18T07:59:04.129Z,4.47
2023-03-18T08:01:31.149Z,4.40
2023-03-18T08:03:58.052Z,4.13
2023-03-18T08:06:25.398Z,4.70
2023-03-18T08:08:52.316Z,4.35
2023-03-18T08:11:19.243Z,4.53
2023-03-18T08:13:46.160Z,5.57
2023-03-18T08:16:13.714Z,4.45
2023-03-18T08:18:41.860Z,4.47
2023-03-18T08:21:09.636Z,4.78
2023-03-18T08:23:37.119Z,4.90
2023-03-18T08:26:05.067Z,4.93
2023-03-18T08:28:36.914Z,7.13
2023-03-18T08:31:05.639Z,4.28
2023-03-18T08:33:32.725Z,4.63
2023-03-18T08:36:00.336Z,3.88
2023-03-18T08:38:27.457Z,4.60
2023-03-18T08:40:56.872Z,6.03
2023-03-18T08:43:24.141Z,4.63
2023-03-18T08:45:54.621Z,5.00
2023-03-18T08:48:22.854Z,4.68
2023-03-18T08:50:50.164Z,4.68
2023-03-18T08:53:17.138Z,4.32
2023-03-18T08:55:44.721Z,4.43
2023-03-18T08:58:11.797Z,4.35
2023-03-18T09:00:40.832Z,5.30
2023-03-18T09:03:08.999Z,4.40
2023-03-18T09:05:36.119Z,4.85
2023-03-18T09:08:03.988Z,4.40
2023-03-18T09:10:30.990Z,5.22
2023-03-18T09:12:58.003Z,6.28
2023-03-18T09:15:25.116Z,4.95
2023-03-18T09:18:09.802Z,4.85
2023-03-18T09:20:37.901Z,4.70
2023-03-18T09:23:04.793Z,4.68
2023-03-18T09:25:32.852Z,5.35
2023-03-18T09:28:01.085Z,4.68
2023-03-18T09:30:28.918Z,4.75
2023-03-18T09:32:56.786Z,4.13
2023-03-18T09:35:24.350Z,5.20
2023-03-18T09:37:52.235Z,6.75
2023-03-18T09:40:29.577Z,4.05
2023-03-18T09:43:21.227Z,4.35
2023-03-18T09:46:05.173Z,4.68
2023-03-18T09:49:04.545Z,3.87
2023-03-18T09:51:53.640Z,5.38
2023-03-18T09:54:33.325Z,4.25
2023-03-18T09:57:01.695Z,3.67
2023-03-18T09:59:41.861Z,4.05
2023-03-18T10:02:22.200Z,3.38
2023-03-18T10:05:00.934Z,3.10
2023-03-18T10:07:33.122Z,4.05
2023-03-18T10:10:09.637Z,4.40
2023-03-18T10:12:46.473Z,4.40
2023-03-18T10:15:26.885Z,3.10
2023-03-18T10:18:06.476Z,3.47
2023-03-18T10:21:16.165Z,3.60
2023-03-18T10:24:08.696Z,4.18
2023-03-18T10:26:42.483Z,4.32
2023-03-18T10:29:34.287Z,3.95
2023-03-18T10:32:07.235Z,4.38
2023-03-18T10:35:09.606Z,4.30
2023-03-18T10:37:51.782Z,3.97
2023-03-18T10:40:20.352Z,4.63
2023-03-18T10:42:50.933Z,4.43
2023-03-18T10:45:20.521Z,4.57
2023-03-18T10:47:56.607Z,4.60
2023-03-18T10:50:37.546Z,4.25
2023-03-18T10:53:19.895Z,4.25
2023-03-18T10:56:02.055Z,5.22
2023-03-18T10:58:32.360Z,5.30
2023-03-18T11:00:59.621Z,4.88
2023-03-18T11:03:37.231Z,4.95
2023-03-18T11:06:07.353Z,3.97
2023-03-18T11:08:40.224Z,4.65
2023-03-18T11:11:22.613Z,3.60
2023-03-18T11:13:56.007Z,6.00
2023-03-18T11:16:35.954Z,5.40
2023-03-18T11:19:09.369Z,5.10
2023-03-18T11:21:37.742Z,5.70
2023-03-18T11:24:10.353Z,4.82
2023-03-18T11:26:47.168Z,4.30
2023-03-18T11:29:19.755Z,4.45
2023-03-18T11:31:53.260Z,6.80
2023-03-18T11:34:21.516Z,5.85
2023-03-18T11:37:01.368Z,7.25
2023-03-18T11:39:31.981Z,4.47
2023-03-18T11:42:00.760Z,3.70
2023-03-18T11:44:32.411Z,4.07
2023-03-18T11:47:19.818Z,3.83
2023-03-18T11:49:46.736Z,3.95
2023-03-18T11:52:27.962Z,4.18
2023-03-18T11:55:01.706Z,6.13
2023-03-18T11:57:34.487Z,3.97
2023-03-18T12:00:22.813Z,5.05
2023-03-18T12:02:58.349Z,3.95
2023-03-18T12:05:52.356Z,4.28
2023-03-18T12:08:25.205Z,5.00
2023-03-18T12:11:06.711Z,3.88
2023-03-18T12:13:52.900Z,4.55
2023-03-18T12:16:49.023Z,4.25
2023-03-18T12:19:49.398Z,5.10
2023-03-18T12:23:03.462Z,4.78
2023-03-18T12:25:59.059Z,5.97
2023-03-18T12:29:11.554Z,3.95
2023-03-18T12:31:45.529Z,4.10
2023-03-18T12:34:50.429Z,6.55
2023-03-18T12:37:33.190Z,4.63
2023-03-18T12:40:30.800Z,4.53
2023-03-18T12:43:39.811Z,4.80
2023-03-18T12:46:33.165Z,5.68
2023-03-18T12:49:08.813Z,5.45
2023-03-18T12:51:45.997Z,5.28
2023-03-18T12:54:24.719Z,4.43
2023-03-18T12:56:58.624Z,5.65
2023-03-18T12:59:53.357Z,4.70
2023-03-18T13:02:27.867Z,4.65
2023-03-18T13:07:50.827Z,4.47
2023-03-18T13:10:20.848Z,6.30
2023-03-18T13:12:53.099Z,14.27
2023-03-18T13:15:53.806Z,21.55
2023-03-18T13:18:22.633Z,6.10
2023-03-18T13:20:52.903Z,8.90
2023-03-18T13:23:39.775Z,30.70
2023-03-18T13:26:29.537Z,9.10
2023-03-18T13:28:56.974Z,4.70
2023-03-18T13:31:38.603Z,20.10
2023-03-18T13:34:18.021Z,7.03
2023-03-18T13:36:59.740Z,5.13
2023-03-18T13:39:48.967Z,4.22
2023-03-18T13:42:30.140Z,4.13
2023-03-18T13:45:07.087Z,4.63
2023-03-18T13:47:40.804Z,3.10
2023-03-18T13:50:43.437Z,2.83
2023-03-18T13:53:27.903Z,2.88
2023-03-18T13:55:57.922Z,7.32
2023-03-18T13:58:37.059Z,3.60
2023-03-18T14:01:25.478Z,3.58
2023-03-18T14:04:04.070Z,3.95
2023-03-18T14:06:37.356Z,4.32
2023-03-18T14:09:27.315Z,4.50
2023-03-18T14:12:30.949Z,4.97
2023-03-18T14:15:05.938Z,3.85
2023-03-18T14:17:45.855Z,4.18
2023-03-18T14:20:27.722Z,3.63
2023-03-18T14:23:34.100Z,3.80
2023-03-18T14:26:19.857Z,4.35
2023-03-18T14:29:10.517Z,5.38
2023-03-18T14:31:40.673Z,4.25
2023-03-18T14:34:14.946Z,4.68
2023-03-18T14:36:54.199Z,3.38
2023-03-18T14:39:36.232Z,5.15
2023-03-18T14:42:10.577Z,3.63
2023-03-18T14:44:52.803Z,3.63
2023-03-18T14:47:39.134Z,3.83
2023-03-18T14:50:17.288Z,3.80
2023-03-18T14:52:51.000Z,3.80
2023-03-18T14:55:37.665Z,3.83
2023-03-18T14:58:05.036Z,3.92
2023-03-18T15:00:37.110Z,3.60
2023-03-18T15:03:08.520Z,4.90
2023-03-18T15:05:41.823Z,3.63
2023-03-18T15:08:19.498Z,4.45
2023-03-18T15:10:50.115Z,3.88
2023-03-18T15:13:19.329Z,3.25
2023-03-18T15:15:47.147Z,4.13
2023-03-18T15:18:29.520Z,4.43
2023-03-18T15:20:56.358Z,4.40
2023-03-18T15:23:32.193Z,4.55
2023-03-18T15:25:59.374Z,4.03
2023-03-18T15:28:29.348Z,3.22
2023-03-18T15:30:59.863Z,4.38
2023-03-18T15:33:34.877Z,3.55
2023-03-18T15:36:07.842Z,4.13
2023-03-18T15:38:35.089Z,4.28
2023-03-18T15:41:06.763Z,6.03
2023-03-18T15:43:38.760Z,9.73
2023-03-18T15:46:36.229Z,14.48
2023-03-18T15:49:05.633Z,5.53
2023-03-18T15:51:47.982Z,4.70
2023-03-18T15:54:39.085Z,4.28
2023-03-18T15:57:21.138Z,4.05
2023-03-18T15:59:48.220Z,4.28
2023-03-18T16:02:18.632Z,4.00
2023-03-18T16:04:46.723Z,4.05
2023-03-18T16:07:18.365Z,4.28
2023-03-18T16:09:45.867Z,3.90
2023-03-18T16:12:25.097Z,5.78
2023-03-18T16:14:53.476Z,3.90
2023-03-18T16:17:22.252Z,5.95
2023-03-18T16:19:54.234Z,4.00
2023-03-18T16:22:22.181Z,3.92
2023-03-18T16:24:49.168Z,3.38
2023-03-18T16:27:22.033Z,3.28
2023-03-18T16:29:49.869Z,3.88
2023-03-18T16:32:17.595Z,3.63
2023-03-18T16:34:46.705Z,4.03
2023-03-18T16:37:22.321Z,3.70
2023-03-18T16:39:49.393Z,3.67
2023-03-18T16:42:16.365Z,4.30
2023-03-18T16:44:43.844Z,3.83
2023-03-18T16:47:21.857Z,4.03
2023-03-18T16:49:49.391Z,4.22
2023-03-18T16:52:16.777Z,3.33
2023-03-18T16:54:44.466Z,4.07
2023-03-18T16:57:18.901Z,4.57
2023-03-18T16:59:53.464Z,4.00
2023-03-18T17:02:33.176Z,3.55
2023-03-18T17:05:00.895Z,3.55
2023-03-18T17:07:29.553Z,3.75
2023-03-18T17:09:56.798Z,3.30
2023-03-18T17:12:25.110Z,3.97
2023-03-18T17:14:57.801Z,3.67
2023-03-18T17:17:33.086Z,3.25
2023-03-18T17:20:00.310Z,3.30
2023-03-18T17:22:30.628Z,3.38
2023-03-18T17:24:57.686Z,3.40
2023-03-18T17:27:39.820Z,3.50
2023-03-18T17:30:33.836Z,3.70
2023-03-18T17:33:01.424Z,4.68
2023-03-18T17:35:28.778Z,3.92
2023-03-18T17:37:56.651Z,4.05
2023-03-18T17:40:26.045Z,3.67
2023-03-18T17:42:54.059Z,3.95
2023-03-18T17:45:25.085Z,3.75
2023-03-18T17:47:52.659Z,4.25
2023-03-18T17:50:20.774Z,4.47
2023-03-18T17:52:51.507Z,4.18
2023-03-18T17:55:22.733Z,4.43
2023-03-18T17:57:50.841Z,4.50
2023-03-18T18:00:24.888Z,3.92
2023-03-18T18:02:54.530Z,4.57
2023-03-18T18:05:23.181Z,4.30
2023-03-18T18:07:51.573Z,4.25
2023-03-18T18:10:20.614Z,4.57
2023-03-18T18:12:49.799Z,3.80
2023-03-18T18:15:26.774Z,4.75
2023-03-18T18:17:54.786Z,4.75
2023-03-18T18:20:22.372Z,5.82
2023-03-18T18:22:55.664Z,4.82
2023-03-18T18:25:27.190Z,6.22
2023-03-18T18:27:54.654Z,4.45
2023-03-18T18:30:23.862Z,4.50
2023-03-18T18:32:51.571Z,4.75
2023-03-18T18:35:21.290Z,4.13
2023-03-18T18:37:49.961Z,5.38
2023-03-18T18:40:18.168Z,4.32
2023-03-18T18:42:45.328Z,4.93
2023-03-18T18:45:19.208Z,4.63
2023-03-18T18:47:46.563Z,5.53
2023-03-18T18:50:17.955Z,4.30
2023-03-18T18:52:45.585Z,4.78
2023-03-18T18:55:12.630Z,4.97
2023-03-18T18:57:42.950Z,5.07
2023-03-18T19:00:30.870Z,5.03
2023-03-18T19:02:58.185Z,4.05
2023-03-18T19:05:25.288Z,4.78
2023-03-18T19:07:52.873Z,3.33
2023-03-18T19:10:19.913Z,6.30
2023-03-18T19:12:47.312Z,3.85
2023-03-18T19:15:15.670Z,4.50
2023-03-18T19:17:43.598Z,5.28
2023-03-18T19:20:39.843Z,4.40
2023-03-18T19:23:15.009Z,4.68
2023-03-18T19:25:42.119Z,6.50
2023-03-18T19:28:15.832Z,7.00
2023-03-18T19:30:42.890Z,8.60
2023-03-18T19:33:15.603Z,6.78
2023-03-18T19:35:43.710Z,6.75
2023-03-18T19:38:21.608Z,6.50
2023-03-18T19:40:49.950Z,6.13
2023-03-18T19:43:21.597Z,6.28
2023-03-18T19:45:50.623Z,6.30
2023-03-18T19:48:23.681Z,6.90
2023-03-18T19:50:51.619Z,7.10
2023-03-18T19:53:19.595Z,6.40
2023-03-18T19:55:48.709Z,6.93
2023-03-18T19:58:27.054Z,7.05
2023-03-18T20:00:55.374Z,7.82
2023-03-18T20:03:24.216Z,7.97
2023-03-18T20:05:52.726Z,7.32
2023-03-18T20:08:19.615Z,8.13
2023-03-18T20:10:46.820Z,8.65
2023-03-18T20:13:16.710Z,8.05
2023-03-18T20:15:44.249Z,8.20
2023-03-18T20:18:18.156Z,8.05
2023-03-18T20:20:48.914Z,9.63
2023-03-18T20:23:26.846Z,8.32
2023-03-18T20:25:54.164Z,7.85
2023-03-18T20:28:24.354Z,8.38
2023-03-18T20:30:53.444Z,8.18
2023-03-18T20:33:22.308Z,8.43
2023-03-18T20:35:52.571Z,8.00
2023-03-18T20:38:30.338Z,7.65
2023-03-18T20:40:57.670Z,8.43
2023-03-18T20:43:27.961Z,7.90
2023-03-18T20:45:57.358Z,9.07
2023-03-18T20:48:24.982Z,8.57
2023-03-18T20:50:52.909Z,8.93
2023-03-18T20:53:24.048Z,8.10
2023-03-18T20:55:52.222Z,8.55
2023-03-18T20:58:22.953Z,7.72
2023-03-18T21:00:51.592Z,11.10
2023-03-18T21:03:27.171Z,9.63
2023-03-18T21:05:57.957Z,11.20
2023-03-18T21:08:27.262Z,9.50
2023-03-18T21:10:58.089Z,9.75
2023-03-18T21:13:30.840Z,9.13
2023-03-18T21:15:59.691Z,10.20
2023-03-18T21:18:26.949Z,9.32
2023-03-18T21:20:55.547Z,7.75
2023-03-18T21:23:25.643Z,7.50
2023-03-18T21:25:53.754Z,7.15
2023-03-18T21:28:23.939Z,7.43
2023-03-18T21:30:53.709Z,6.38
2023-03-18T21:33:30.116Z,6.85
2023-03-18T21:35:58.101Z,5.85
2023-03-18T21:38:30.873Z,5.65
2023-03-18T21:40:59.487Z,6.47
2023-03-18T21:43:33.226Z,5.60
2023-03-18T21:46:05.696Z,6.72
2023-03-18T21:48:32.851Z,6.93
2023-03-18T21:51:00.401Z,6.90
2023-03-18T21:53:29.186Z,6.18
2023-03-18T21:55:56.286Z,5.35
2023-03-18T21:58:25.842Z,5.65
2023-03-18T22:00:58.007Z,7.15
2023-03-18T22:03:28.288Z,6.13
2023-03-18T22:05:56.525Z,6.60
2023-03-18T22:08:24.317Z,6.90
2023-03-18T22:10:52.276Z,6.82
2023-03-18T22:13:23.820Z,5.75
2023-03-18T22:15:53.057Z,6.65
2023-03-18T22:18:21.302Z,7.18
2023-03-18T22:20:51.764Z,7.15
2023-03-18T22:23:27.763Z,8.30
2023-03-18T22:25:57.507Z,8.30
2023-03-18T22:28:26.080Z,7.50
2023-03-18T22:30:55.929Z,8.48
2023-03-18T22:33:26.977Z,9.82
2023-03-18T22:35:54.059Z,10.77
2023-03-18T22:38:22.455Z,8.90
2023-03-18T22:40:55.504Z,8.18
2023-03-18T22:43:37.296Z,8.05
2023-03-18T22:46:06.955Z,9.45
2023-03-18T22:48:36.500Z,10.13
2023-03-18T22:51:04.993Z,17.00
2023-03-18T22:53:41.285Z,14.93
2023-03-18T22:56:14.308Z,16.20
2023-03-18T22:58:41.501Z,17.60
2023-03-18T23:01:14.389Z,18.35
2023-03-18T23:03:43.999Z,18.08
2023-03-18T23:06:19.752Z,15.57
2023-03-18T23:08:47.733Z,17.77
2023-03-18T23:11:16.115Z,18.83
2023-03-18T23:13:45.564Z,16.52
2023-03-18T23:16:18.303Z,10.43
2023-03-18T23:18:45.965Z,8.60
2023-03-18T23:21:21.897Z,8.05
2023-03-18T23:23:49.376Z,9.35
2023-03-18T23:26:17.227Z,8.93
2023-03-18T23:28:45.442Z,8.18
2023-03-18T23:31:14.588Z,7.25
2023-03-18T23:33:42.089Z,9.88
2023-03-18T23:36:20.695Z,8.65
2023-03-18T23:38:47.929Z,7.15
2023-03-18T23:41:15.187Z,7.22
2023-03-18T23:43:42.145Z,7.28
2023-03-18T23:46:09.374Z,7.03
2023-03-18T23:48:37.144Z,7.85
2023-03-18T23:51:04.126Z,6.85
2023-03-18T23:53:31.054Z,7.05
2023-03-18T23:55:58.003Z,7.97
2023-03-18T23:58:24.935Z,7.65
